createdAt,value
2017-10-04T00:04:45.016Z,3.80
2017-10-04T00:09:46.971Z,6.10
2017-10-04T00:14:48.947Z,4.40
2017-10-04T00:19:50.920Z,4.30
2017-10-04T00:24:52.844Z,4.37
2017-10-04T00:29:54.851Z,5.10
2017-10-04T00:34:56.804Z,5.13
2017-10-04T00:40:00.216Z,6.40
2017-10-04T00:45:02.753Z,6.40
2017-10-04T00:50:05.153Z,5.80
2017-10-04T00:55:07.911Z,6.27
2017-10-04T01:00:10.282Z,6.40
2017-10-04T01:05:13.030Z,6.17
2017-10-04T01:10:15.605Z,5.40
2017-10-04T01:15:18.186Z,5.10
2017-10-04T01:20:21.813Z,6.07
2017-10-04T01:25:24.386Z,5.20
2017-10-04T01:30:27.147Z,3.93
2017-10-04T01:35:29.413Z,5.00
2017-10-04T01:40:31.998Z,4.93
2017-10-04T01:45:34.387Z,4.90
2017-10-04T01:50:37.769Z,4.10
2017-10-04T01:55:40.325Z,4.20
2017-10-04T02:00:43.625Z,4.23
2017-10-04T02:05:45.874Z,4.03
2017-10-04T02:10:48.533Z,3.50
2017-10-04T02:15:51.062Z,3.90
2017-10-04T02:20:53.693Z,3.87
2017-10-04T02:25:56.327Z,4.03
2017-10-04T02:30:58.849Z,4.37
2017-10-04T02:36:01.397Z,4.27
2017-10-04T02:41:04.031Z,5.93
2017-10-04T02:46:06.701Z,4.73
2017-10-04T02:51:09.371Z,4.30
2017-10-04T02:56:12.085Z,5.50
2017-10-04T03:01:15.333Z,5.43
2017-10-04T03:06:18.009Z,5.83
2017-10-04T03:11:20.680Z,6.20
2017-10-04T03:16:22.652Z,4.90
2017-10-04T03:21:25.212Z,5.10
2017-10-04T03:26:27.742Z,6.03
2017-10-04T03:31:30.201Z,5.90
2017-10-04T03:36:32.796Z,6.40
2017-10-04T03:41:35.075Z,6.90
2017-10-04T03:46:37.662Z,6.90
2017-10-04T03:51:39.602Z,7.43
2017-10-04T03:56:42.322Z,6.90
2017-10-04T04:01:45.189Z,7.30
2017-10-04T04:06:47.463Z,7.47
2017-10-04T04:11:50.043Z,7.47
2017-10-04T04:16:52.750Z,8.73
2017-10-04T04:21:55.428Z,8.70
2017-10-04T04:26:58.497Z,9.03
2017-10-04T04:32:01.855Z,8.50
2017-10-04T04:37:03.803Z,8.73
2017-10-04T04:42:05.781Z,8.80
2017-10-04T04:47:08.478Z,8.63
2017-10-04T04:52:10.423Z,8.27
2017-10-04T04:57:12.429Z,8.60
2017-10-04T05:02:15.175Z,8.03
2017-10-04T05:07:17.349Z,7.50
2017-10-04T05:12:19.339Z,8.60
2017-10-04T05:17:21.917Z,8.00
2017-10-04T05:22:24.452Z,7.53
2017-10-04T05:27:27.098Z,8.10
2017-10-04T05:32:31.338Z,7.23
2017-10-04T05:37:33.937Z,7.40
2017-10-04T05:42:37.258Z,6.40
2017-10-04T05:47:39.835Z,6.17
2017-10-04T05:52:42.453Z,6.40
2017-10-04T05:57:45.711Z,6.60
2017-10-04T06:02:48.383Z,5.97
2017-10-04T06:07:51.081Z,6.30
2017-10-04T06:12:53.733Z,6.00
2017-10-04T06:17:56.704Z,6.50
2017-10-04T06:22:59.406Z,7.27
2017-10-04T06:28:02.022Z,6.17
2017-10-04T06:33:05.569Z,5.13
2017-10-04T06:38:08.174Z,5.97
2017-10-04T06:43:11.349Z,5.40
2017-10-04T06:48:13.922Z,5.50
2017-10-04T06:53:16.569Z,5.63
2017-10-04T06:58:19.213Z,6.33
2017-10-04T07:03:21.866Z,6.40
2017-10-04T07:08:24.533Z,5.57
2017-10-04T07:13:27.155Z,5.87
2017-10-04T07:18:29.796Z,5.43
2017-10-04T07:23:31.866Z,5.23
2017-10-04T07:28:34.545Z,5.00
2017-10-04T07:33:37.083Z,4.90
2017-10-04T07:38:39.682Z,4.33
2017-10-04T07:43:42.091Z,4.47
2017-10-04T07:48:45.539Z,4.80
2017-10-04T07:53:47.918Z,4.40
2017-10-04T07:58:51.272Z,5.37
2017-10-04T08:03:53.630Z,3.77
2017-10-04T08:08:55.851Z,4.00
2017-10-04T08:13:58.460Z,3.83
2017-10-04T08:19:01.041Z,4.40
2017-10-04T08:24:03.649Z,3.93
2017-10-04T08:29:06.317Z,3.93
2017-10-04T08:34:09.670Z,3.63
2017-10-04T08:39:12.128Z,4.90
2017-10-04T08:44:14.645Z,3.50
2017-10-04T08:49:17.006Z,4.10
2017-10-04T08:54:19.585Z,3.67
2017-10-04T08:59:22.044Z,4.00
2017-10-04T09:04:42.544Z,3.20
2017-10-04T09:09:44.600Z,3.77
2017-10-04T09:14:47.187Z,3.30
2017-10-04T09:19:49.726Z,3.33
2017-10-04T09:24:52.503Z,4.00
2017-10-04T09:29:55.257Z,3.83
2017-10-04T09:34:57.647Z,4.13
2017-10-04T09:40:00.208Z,3.20
2017-10-04T09:45:03.694Z,3.60
2017-10-04T09:50:06.248Z,3.40
2017-10-04T09:55:08.667Z,3.13
2017-10-04T10:00:11.091Z,3.40
2017-10-04T10:05:13.560Z,2.40
2017-10-04T10:10:16.695Z,3.13
2017-10-04T10:15:18.699Z,2.40
2017-10-04T10:20:21.174Z,2.57
2017-10-04T10:25:23.791Z,2.33
2017-10-04T10:30:26.458Z,2.40
2017-10-04T10:35:28.891Z,2.70
2017-10-04T10:40:31.481Z,2.80
2017-10-04T10:45:34.471Z,2.70
2017-10-04T10:50:37.321Z,3.80
2017-10-04T10:55:40.068Z,3.30
2017-10-04T11:00:43.262Z,2.73
2017-10-04T11:05:46.404Z,3.53
2017-10-04T11:10:49.072Z,3.30
2017-10-04T11:15:51.956Z,2.83
2017-10-04T11:20:54.699Z,3.47
2017-10-04T11:25:57.276Z,2.73
2017-10-04T11:30:59.538Z,3.50
2017-10-04T11:36:02.147Z,3.73
2017-10-04T11:41:05.262Z,3.40
2017-10-04T11:46:07.640Z,3.30
2017-10-04T11:51:10.193Z,3.20
2017-10-04T11:56:12.399Z,4.20
2017-10-04T12:01:14.480Z,3.50
2017-10-04T12:06:17.122Z,3.50
2017-10-04T12:11:21.433Z,3.30
2017-10-04T12:16:24.259Z,3.27
2017-10-04T12:21:26.409Z,3.80
2017-10-04T12:26:28.973Z,3.07
2017-10-04T12:31:31.251Z,3.30
2017-10-04T12:36:33.732Z,3.93
2017-10-04T12:41:36.437Z,3.87
2017-10-04T12:46:38.690Z,3.00
2017-10-04T12:51:41.659Z,4.00
2017-10-04T12:56:44.235Z,3.00
2017-10-04T13:01:47.853Z,3.20
2017-10-04T13:06:50.495Z,3.00
2017-10-04T13:11:53.122Z,5.67
2017-10-04T13:16:55.285Z,3.73
2017-10-04T13:21:57.320Z,3.50
2017-10-04T13:27:06.660Z,3.20
2017-10-04T13:32:09.241Z,3.60
2017-10-04T13:37:11.853Z,3.37
2017-10-04T13:42:13.838Z,4.63
2017-10-04T13:47:16.373Z,3.07
2017-10-04T13:52:18.996Z,3.33
2017-10-04T13:57:26.948Z,3.93
2017-10-04T14:02:35.931Z,2.93
2017-10-04T14:07:38.428Z,3.87
2017-10-04T14:12:41.374Z,3.10
2017-10-04T14:17:43.644Z,4.60
2017-10-04T14:22:46.160Z,2.80
2017-10-04T14:27:48.330Z,3.10
2017-10-04T14:32:51.751Z,3.70
2017-10-04T14:37:54.023Z,3.50
2017-10-04T14:42:56.729Z,2.90
2017-10-04T14:48:00.457Z,4.07
2017-10-04T14:53:03.062Z,3.90
2017-10-04T14:58:05.809Z,3.50
2017-10-04T15:03:09.118Z,3.30
2017-10-04T15:08:12.390Z,3.90
2017-10-04T15:13:14.512Z,5.20
2017-10-04T15:18:16.998Z,3.37
2017-10-04T15:23:19.621Z,4.07
2017-10-04T15:28:21.707Z,3.93
2017-10-04T15:33:24.316Z,3.50
2017-10-04T15:38:26.911Z,4.30
2017-10-04T15:43:29.490Z,4.50
2017-10-04T15:48:32.292Z,4.17
2017-10-04T15:53:34.553Z,4.43
2017-10-04T15:58:37.205Z,3.77
2017-10-04T16:03:39.870Z,4.50
2017-10-04T16:08:43.346Z,4.70
2017-10-04T16:13:52.315Z,4.30
2017-10-04T16:18:54.815Z,4.43
2017-10-04T16:23:57.372Z,3.77
2017-10-04T16:29:00.766Z,3.80
2017-10-04T16:34:03.461Z,3.57
2017-10-04T16:39:05.944Z,3.37
2017-10-04T16:44:08.688Z,3.90
2017-10-04T16:49:11.195Z,3.57
2017-10-04T16:54:15.427Z,4.27
2017-10-04T16:59:17.788Z,4.43
2017-10-04T17:04:20.529Z,5.00
2017-10-04T17:09:22.867Z,4.77
2017-10-04T17:14:25.199Z,3.27
2017-10-04T17:19:27.997Z,3.63
2017-10-04T17:24:31.146Z,4.00
2017-10-04T17:29:33.767Z,4.20
2017-10-04T17:34:38.258Z,3.97
2017-10-04T17:39:42.285Z,3.30
2017-10-04T17:44:45.293Z,3.77
2017-10-04T17:49:48.528Z,3.90
2017-10-04T17:54:51.716Z,3.70
2017-10-04T17:59:55.397Z,3.50
2017-10-04T18:04:58.956Z,3.10
2017-10-04T18:10:02.231Z,2.90
2017-10-04T18:15:05.305Z,3.03
2017-10-04T18:20:08.068Z,3.00
2017-10-04T18:25:11.441Z,3.07
2017-10-04T18:30:16.678Z,2.73
2017-10-04T18:35:19.753Z,2.80
2017-10-04T18:40:22.342Z,3.03
2017-10-04T18:45:24.869Z,2.10
2017-10-04T18:50:27.315Z,2.60
2017-10-04T18:55:29.673Z,2.60
2017-10-04T19:00:31.989Z,2.90
2017-10-04T19:05:34.581Z,2.60
2017-10-04T19:10:37.123Z,2.50
2017-10-04T19:15:39.749Z,3.00
2017-10-04T19:20:43.145Z,2.83
2017-10-04T19:25:45.859Z,2.27
2017-10-04T19:30:48.101Z,2.30
2017-10-04T19:35:50.750Z,2.30
2017-10-04T19:40:53.039Z,3.43
2017-10-04T19:45:55.515Z,2.63
2017-10-04T19:50:58.552Z,2.60
2017-10-04T19:56:01.271Z,3.10
2017-10-04T20:01:03.543Z,3.00
2017-10-04T20:06:05.728Z,2.37
2017-10-04T20:11:08.027Z,2.83
2017-10-04T20:16:10.493Z,2.70
2017-10-04T20:21:12.976Z,2.43
2017-10-04T20:26:15.595Z,2.80
2017-10-04T20:31:19.220Z,2.30
2017-10-04T20:36:21.556Z,3.10
2017-10-04T20:41:24.228Z,2.30
2017-10-04T20:46:26.813Z,2.10
2017-10-04T20:51:29.218Z,2.73
2017-10-04T20:56:31.896Z,2.43
2017-10-04T21:01:34.117Z,2.33
2017-10-04T21:06:36.766Z,1.87
2017-10-04T21:11:39.446Z,2.40
2017-10-04T21:16:42.136Z,2.63
2017-10-04T21:21:45.455Z,2.40
2017-10-04T21:26:47.520Z,2.77
2017-10-04T21:31:50.191Z,2.90
2017-10-04T21:36:52.739Z,3.90
2017-10-04T21:41:55.370Z,3.80
2017-10-04T21:46:57.922Z,2.00
2017-10-04T21:52:00.560Z,2.63
2017-10-04T21:57:03.134Z,3.20
2017-10-04T22:02:05.593Z,3.43
2017-10-04T22:07:09.841Z,3.83
2017-10-04T22:12:12.394Z,3.27
2017-10-04T22:17:15.115Z,3.10
2017-10-04T22:22:18.459Z,3.40
2017-10-04T22:27:21.121Z,4.90
2017-10-04T22:32:23.735Z,5.10
2017-10-04T22:37:26.984Z,5.67
2017-10-04T22:42:29.391Z,4.97
2017-10-04T22:47:31.626Z,5.13
2017-10-04T22:52:34.829Z,5.40
2017-10-04T22:57:37.443Z,5.57
2017-10-04T23:02:40.037Z,5.50
2017-10-04T23:07:42.707Z,6.20
2017-10-04T23:12:45.412Z,6.70
2017-10-04T23:17:47.847Z,6.60
2017-10-04T23:22:50.009Z,6.83
2017-10-04T23:27:51.947Z,7.60
2017-10-04T23:32:53.920Z,7.40
2017-10-04T23:37:56.619Z,8.13
2017-10-04T23:42:59.622Z,7.30
2017-10-04T23:48:02.213Z,7.27
2017-10-04T23:53:04.884Z,9.23
2017-10-04T23:58:07.463Z,7.87
